createdAt,value
2023-08-23T00:00:08.936Z,21.18
2023-08-23T00:05:08.958Z,21.12
2023-08-23T00:10:08.929Z,21.12
2023-08-23T00:15:08.935Z,21.06
2023-08-23T00:20:08.936Z,20.81
2023-08-23T00:30:08.907Z,20.81
2023-08-23T00:35:08.909Z,20.75
2023-08-23T00:40:08.876Z,20.68
2023-08-23T00:55:08.860Z,20.56
2023-08-23T01:30:08.821Z,21.12
2023-08-23T01:40:08.802Z,21.25
2023-08-23T01:50:08.780Z,21.37
2023-08-23T02:00:08.765Z,22.31
2023-08-23T02:05:08.772Z,22.25
2023-08-23T02:20:08.739Z,22.25
2023-08-23T02:30:08.735Z,22
2023-08-23T02:35:08.723Z,21.93
2023-08-23T02:55:08.721Z,21.93
2023-08-23T03:05:08.716Z,21.56
2023-08-23T03:10:08.673Z,21.37
2023-08-23T03:15:08.670Z,21.43
2023-08-23T03:20:08.687Z,21.5
2023-08-23T03:25:08.741Z,21.25
2023-08-23T03:30:08.698Z,21.18
2023-08-23T03:35:08.648Z,21.12
2023-08-23T03:40:08.648Z,21
2023-08-23T03:45:08.657Z,21
2023-08-23T03:50:08.652Z,21
2023-08-23T03:55:08.639Z,20.93
2023-08-23T04:00:08.612Z,20.93
2023-08-23T04:05:08.609Z,20.93
2023-08-23T04:10:08.643Z,20.87
2023-08-23T04:15:08.597Z,20.81
2023-08-23T04:20:08.663Z,20.68
2023-08-23T04:25:08.667Z,20.62
2023-08-23T04:30:08.574Z,20.62
2023-08-23T04:35:08.626Z,20.43
2023-08-23T04:40:08.570Z,20.43
2023-08-23T04:45:08.554Z,20.43
2023-08-23T04:50:08.560Z,20.43
2023-08-23T04:55:08.547Z,20.37
2023-08-23T05:00:08.547Z,20.56
2023-08-23T05:05:08.592Z,20.75
2023-08-23T05:10:08.531Z,20.93
2023-08-23T05:15:08.517Z,20.81
2023-08-23T05:20:08.513Z,21.06
2023-08-23T05:25:08.515Z,21.18
2023-08-23T05:30:08.518Z,21.31
2023-08-23T05:35:08.491Z,21.37
2023-08-23T05:40:08.491Z,21.5
2023-08-23T05:45:08.500Z,21.62
2023-08-23T05:50:08.513Z,21.5
2023-08-23T05:55:08.501Z,21.5
2023-08-23T06:00:08.482Z,21.56
2023-08-23T06:05:08.494Z,21.31
2023-08-23T06:10:08.463Z,21.25
2023-08-23T06:15:08.449Z,21.12
2023-08-23T06:20:08.418Z,21.06
2023-08-23T06:25:08.446Z,21.12
2023-08-23T06:30:08.420Z,21.06
2023-08-23T06:35:08.406Z,21.18
2023-08-23T06:40:08.400Z,21.68
2023-08-23T06:45:08.405Z,23.93
2023-08-23T06:50:12.128Z,27.18
2023-08-23T07:00:08.381Z,28.18
2023-08-23T07:05:08.390Z,28.12
2023-08-23T07:10:21.972Z,27.62
2023-08-23T07:15:08.369Z,28.18
2023-08-23T07:30:08.314Z,29.43
2023-08-23T07:35:08.340Z,29.06
2023-08-23T07:40:08.309Z,26.37
2023-08-23T08:00:08.309Z,26.75
2023-08-23T08:40:08.258Z,26.75
2023-08-23T08:45:08.255Z,26.81
2023-08-23T08:50:08.295Z,27.31
2023-08-23T09:00:08.213Z,27.81
2023-08-23T09:40:08.200Z,27.75
2023-08-23T10:00:08.124Z,27.75
2023-08-23T10:10:08.119Z,27.37
2023-08-23T10:20:08.137Z,27.31
2023-08-23T10:25:08.134Z,27.75
2023-08-23T10:30:19.670Z,27.31
2023-08-23T10:35:08.116Z,27.25
2023-08-23T10:40:08.078Z,28
2023-08-23T10:45:08.088Z,28.43
2023-08-23T10:50:08.056Z,28.87
2023-08-23T10:55:08.056Z,28.62
2023-08-23T11:00:08.046Z,28.93
2023-08-23T11:05:08.038Z,28.75
2023-08-23T11:10:08.052Z,28.31
2023-08-23T11:15:08.059Z,28.25
2023-08-23T11:20:08.069Z,27.75
2023-08-23T11:25:08.045Z,27.93
2023-08-23T11:30:08.048Z,27.81
2023-08-23T11:35:08.039Z,28.43
2023-08-23T11:40:08.025Z,28.62
2023-08-23T11:45:08.025Z,29.06
2023-08-23T11:50:08.005Z,28.75
2023-08-23T11:55:08.008Z,28.31
2023-08-23T12:00:07.985Z,28.43
2023-08-23T12:05:08.001Z,28.62
2023-08-23T12:10:08.083Z,28.87
2023-08-23T12:15:07.969Z,28.93
2023-08-23T12:20:07.958Z,29.12
2023-08-23T12:25:07.981Z,29.43
2023-08-23T12:30:07.980Z,28.5
2023-08-23T12:35:07.947Z,29.06
2023-08-23T12:40:07.935Z,28.81
2023-08-23T12:45:07.942Z,28.75
2023-08-23T12:50:07.937Z,28.93
2023-08-23T12:55:07.986Z,28.43
2023-08-23T13:00:18.743Z,28.31
2023-08-23T13:05:07.889Z,28.93
2023-08-23T13:10:07.888Z,29.31
2023-08-23T13:15:07.928Z,29.25
2023-08-23T13:20:07.887Z,29.06
2023-08-23T13:25:07.873Z,29.06
2023-08-23T13:30:07.884Z,29
2023-08-23T13:35:07.856Z,29.25
2023-08-23T13:40:07.897Z,29.25
2023-08-23T13:45:07.862Z,29.25
2023-08-23T13:50:07.869Z,29.5
2023-08-23T13:55:07.862Z,29.5
2023-08-23T14:00:07.831Z,29.62
2023-08-23T14:05:07.826Z,29.68
2023-08-23T14:10:07.857Z,29.5
2023-08-23T14:15:07.819Z,29.43
2023-08-23T14:20:07.821Z,28.81
2023-08-23T14:25:07.809Z,28.93
2023-08-23T14:30:07.830Z,29
2023-08-23T14:35:07.775Z,29.43
2023-08-23T14:40:07.798Z,29.37
2023-08-23T14:45:07.776Z,28.87
2023-08-23T15:35:07.819Z,29.06
2023-08-23T16:00:07.732Z,28.68
2023-08-23T16:15:07.662Z,28.43
2023-08-23T16:25:07.765Z,28.43
2023-08-23T16:55:07.603Z,28.06
2023-08-23T17:15:07.573Z,26.75
2023-08-23T17:45:07.583Z,25.87
2023-08-23T17:50:07.535Z,25.68
2023-08-23T17:55:07.541Z,25.56
2023-08-23T18:00:07.523Z,25.43
2023-08-23T18:05:07.551Z,25.31
2023-08-23T18:10:07.500Z,25.12
2023-08-23T18:15:07.518Z,25.06
2023-08-23T18:20:07.526Z,24.87
2023-08-23T18:25:07.516Z,24.75
2023-08-23T18:30:12.518Z,24.62
2023-08-23T18:35:07.486Z,24.56
2023-08-23T18:40:07.485Z,24.43
2023-08-23T18:45:07.463Z,24.43
2023-08-23T18:50:07.483Z,24.43
2023-08-23T18:55:07.459Z,24.31
2023-08-23T19:00:07.462Z,24.31
2023-08-23T19:05:07.451Z,23.93
2023-08-23T19:10:07.423Z,23.87
2023-08-23T19:15:07.409Z,23.81
2023-08-23T19:20:07.476Z,23.68
2023-08-23T19:25:07.412Z,23.56
2023-08-23T19:30:07.469Z,23.56
2023-08-23T19:35:07.429Z,23.5
2023-08-23T19:40:07.379Z,23.5
2023-08-23T19:45:09.654Z,23.56
2023-08-23T19:55:07.384Z,23.62
2023-08-23T20:00:07.387Z,23.43
2023-08-23T20:05:09.054Z,23.62
2023-08-23T20:10:07.384Z,23.81
2023-08-23T20:15:07.359Z,23.75
2023-08-23T20:20:07.370Z,23.43
2023-08-23T20:25:07.334Z,23.5
2023-08-23T20:30:07.377Z,23.43
2023-08-23T20:35:07.346Z,23.12
2023-08-23T20:40:07.302Z,23.06
2023-08-23T20:45:07.303Z,22.93
2023-08-23T20:50:07.385Z,22.87
2023-08-23T20:55:07.285Z,22.68
2023-08-23T21:00:07.281Z,22.56
2023-08-23T21:05:07.298Z,22.62
2023-08-23T21:10:07.290Z,22.56
2023-08-23T21:15:09.410Z,22.75
2023-08-23T21:20:09.148Z,22.81
2023-08-23T21:25:07.270Z,22.68
2023-08-23T21:30:07.281Z,22.5
2023-08-23T21:35:07.293Z,22.18
2023-08-23T21:40:07.228Z,22.12
2023-08-23T21:45:07.265Z,22.06
2023-08-23T21:50:07.211Z,21.81
2023-08-23T21:55:07.230Z,21.56
2023-08-23T22:00:07.249Z,21.62
2023-08-23T22:05:07.184Z,21.43
2023-08-23T22:10:07.208Z,21.25
2023-08-23T22:20:07.227Z,21.12
2023-08-23T22:50:07.144Z,20.87
2023-08-23T22:55:07.114Z,20.75
2023-08-23T23:00:07.122Z,20.75
2023-08-23T23:25:07.099Z,20.37
2023-08-23T23:40:07.156Z,20.18
2023-08-23T23:45:07.066Z,20.25
